Time;durP1;ratioP1;P1;durP2;ratioP2;P2;SDS_P1;SDS_P2;PMS_P1;PMS_P2;Temp;Humidity;BMP_temperature;BMP_pressure;BME280_temperature;BME280_humidity;BME280_pressure;Samples;Min_cycle;Max_cycle;Signal;HPM_P1;HPM_P2
2023/05/13 00:02:14;;;;;;;14.70;4.95;;;;;;;22.30;22.79;99675.81;4987511;28;20634;-70
2023/05/13 00:04:40;;;;;;;18.30;5.10;;;;;;;22.28;22.97;99669.78;5003638;28;20053;-70
2023/05/13 00:07:06;;;;;;;17.00;5.28;;;;;;;22.35;22.86;99667.00;4987510;28;20041;-70
2023/05/13 00:09:32;;;;;;;13.85;5.22;;;;;;;22.31;22.83;99672.03;4972546;28;20054;-70
2023/05/13 00:11:57;;;;;;;16.38;5.00;;;;;;;22.29;23.07;99679.56;4980684;28;20042;-70
2023/05/13 00:14:24;;;;;;;11.10;4.53;;;;;;;22.25;22.95;99681.06;4983776;28;20053;-70
2023/05/13 00:16:50;;;;;;;11.63;4.55;;;;;;;22.28;22.78;99680.63;5034001;28;20061;-70
2023/05/13 00:19:15;;;;;;;9.82;4.50;;;;;;;22.30;23.04;99681.22;5017407;28;20051;-70
2023/05/13 00:21:41;;;;;;;18.02;5.25;;;;;;;22.29;23.01;99684.16;5033665;28;20533;-70
2023/05/13 00:24:07;;;;;;;13.30;4.30;;;;;;;22.31;22.93;99682.06;5016882;28;20465;-71
2023/05/13 00:26:34;;;;;;;17.58;4.35;;;;;;;22.38;22.91;99683.59;5016158;28;20148;-70
2023/05/13 00:29:01;;;;;;;12.98;4.55;;;;;;;22.48;23.15;99681.13;5032296;28;20041;-70
2023/05/13 00:31:28;;;;;;;12.80;4.75;;;;;;;22.17;23.03;99691.44;5032176;28;20623;-70
2023/05/13 00:33:54;;;;;;;12.43;4.43;;;;;;;22.17;22.97;99686.81;4999594;28;20142;-70
2023/05/13 00:36:20;;;;;;;9.55;4.20;;;;;;;22.14;23.13;99689.19;5017472;28;20103;-70
2023/05/13 00:38:46;;;;;;;11.10;4.22;;;;;;;22.19;23.14;99690.13;5017007;28;20060;-70
2023/05/13 00:41:12;;;;;;;11.23;4.90;;;;;;;22.07;23.03;99686.56;5016692;28;20049;-70
2023/05/13 00:43:38;;;;;;;14.50;4.60;;;;;;;22.07;23.18;99686.56;5015740;28;20068;-70
2023/05/13 00:46:04;;;;;;;17.77;4.80;;;;;;;22.11;23.22;99693.16;5032025;28;20057;-70
2023/05/13 00:48:30;;;;;;;8.45;4.30;;;;;;;22.11;23.16;99697.75;5015731;28;20160;-70
2023/05/13 00:50:56;;;;;;;17.63;4.68;;;;;;;22.05;23.28;99694.06;5014969;28;20132;-70
2023/05/13 00:53:22;;;;;;;15.98;4.40;;;;;;;22.11;23.41;99693.16;5031046;28;20136;-70
2023/05/13 00:55:48;;;;;;;14.90;4.78;;;;;;;22.06;23.23;99693.03;5029376;28;20076;-70
2023/05/13 00:58:13;;;;;;;11.63;3.97;;;;;;;22.04;23.48;99703.25;5012955;28;20156;-70
2023/05/13 01:00:51;;;;;;;14.13;4.93;;;;;;;22.87;23.26;99702.16;5029136;28;20044;-70
2023/05/13 01:03:25;;;;;;;14.70;4.80;;;;;;;22.53;23.63;99704.81;5029496;28;20140;-70
2023/05/13 01:06:01;;;;;;;25.17;5.00;;;;;;;22.70;23.74;99701.19;5029670;28;20061;-70
2023/05/13 01:08:30;;;;;;;15.75;4.50;;;;;;;22.00;23.70;99698.53;5047107;28;20065;-70
2023/05/13 01:11:00;;;;;;;21.20;5.05;;;;;;;22.42;23.89;99702.91;5032000;28;20488;-70
2023/05/13 01:13:30;;;;;;;13.65;4.72;;;;;;;22.34;23.87;99695.91;5031917;28;20049;-70
2023/05/13 01:16:06;;;;;;;13.30;5.40;;;;;;;22.52;23.74;99706.72;5016032;28;20069;-70
2023/05/13 01:18:38;;;;;;;16.60;4.68;;;;;;;22.40;24.13;99708.53;5016622;28;20049;-70
2023/05/13 01:21:05;;;;;;;9.30;4.38;;;;;;;22.00;24.05;99702.09;5016534;28;20049;-70
2023/05/13 01:23:31;;;;;;;11.45;4.72;;;;;;;21.87;23.88;99710.38;5016067;28;20099;-70
2023/05/13 01:25:57;;;;;;;12.45;4.68;;;;;;;21.85;24.10;99698.94;5032548;28;20072;-70
2023/05/13 01:28:25;;;;;;;13.13;4.60;;;;;;;21.81;23.89;99700.47;5049306;28;20091;-70
2023/05/13 01:30:55;;;;;;;15.82;4.60;;;;;;;21.94;24.27;99705.69;5016786;28;20098;-70
2023/05/13 01:33:22;;;;;;;28.98;5.70;;;;;;;22.00;24.35;99710.19;5015897;28;20095;-70
2023/05/13 01:35:49;;;;;;;12.75;4.50;;;;;;;21.98;24.35;99704.19;5014138;28;20425;-70
2023/05/13 01:38:18;;;;;;;15.80;5.30;;;;;;;22.11;24.42;99706.69;4996617;28;20088;-70
2023/05/13 01:40:48;;;;;;;17.65;4.95;;;;;;;22.08;24.44;99711.75;4996744;28;20053;-70
2023/05/13 01:43:14;;;;;;;10.85;4.70;;;;;;;21.82;24.40;99714.81;4980104;28;20057;-69
2023/05/13 01:45:40;;;;;;;18.48;5.22;;;;;;;21.93;24.54;99717.56;4996552;28;20063;-69
2023/05/13 01:48:07;;;;;;;21.08;5.25;;;;;;;21.81;24.44;99710.44;4979685;28;20196;-69
2023/05/13 01:50:41;;;;;;;13.20;4.40;;;;;;;21.80;24.62;99717.75;5015208;28;20037;-70
2023/05/13 01:53:09;;;;;;;13.65;5.07;;;;;;;21.84;24.46;99716.22;4978933;28;20424;-70
2023/05/13 01:55:37;;;;;;;15.95;4.38;;;;;;;21.80;24.55;99723.16;4979219;28;20558;-70
2023/05/13 01:58:04;;;;;;;16.08;4.80;;;;;;;21.78;24.67;99725.25;4978752;28;20062;-70
2023/05/13 02:00:30;;;;;;;16.45;5.28;;;;;;;21.81;24.59;99723.97;4978956;28;20057;-69
2023/05/13 02:02:57;;;;;;;11.15;4.45;;;;;;;21.82;24.53;99729.16;4995336;28;20165;-70
2023/05/13 02:05:22;;;;;;;13.18;5.20;;;;;;;21.80;24.61;99733.16;4978994;28;20140;-69
2023/05/13 02:07:49;;;;;;;18.17;5.43;;;;;;;21.82;24.44;99734.56;4994475;28;20456;-69
2023/05/13 02:10:15;;;;;;;11.75;5.10;;;;;;;22.10;24.31;99734.81;4960099;28;20047;-69
2023/05/13 02:12:41;;;;;;;11.82;4.95;;;;;;;21.88;24.21;99736.34;4975049;28;20061;-70
2023/05/13 02:15:08;;;;;;;12.40;5.00;;;;;;;22.03;24.55;99734.06;4975377;28;20052;-69
2023/05/13 02:17:34;;;;;;;12.13;4.82;;;;;;;21.92;24.51;99732.16;4991250;28;20062;-70
2023/05/13 02:20:02;;;;;;;18.75;4.72;;;;;;;22.03;24.04;99728.66;4974529;28;20046;-70
2023/05/13 02:22:30;;;;;;;15.68;4.97;;;;;;;21.96;24.36;99730.63;4991342;28;20054;-70
2023/05/13 02:24:57;;;;;;;10.18;4.65;;;;;;;21.97;24.41;99737.69;4975277;28;20201;-70
2023/05/13 02:27:23;;;;;;;13.73;4.80;;;;;;;21.99;24.60;99742.88;4990908;28;20065;-70
2023/05/13 02:29:49;;;;;;;17.60;5.70;;;;;;;21.96;24.48;99744.16;4974881;28;20038;-70
2023/05/13 02:32:15;;;;;;;12.27;5.55;;;;;;;21.98;24.63;99739.34;4974829;28;20050;-70
2023/05/13 02:34:41;;;;;;;18.70;5.65;;;;;;;21.98;24.53;99742.06;4990693;28;20053;-70
2023/05/13 02:37:07;;;;;;;11.40;5.40;;;;;;;22.14;24.74;99744.09;4974576;28;20046;-70
2023/05/13 02:39:40;;;;;;;17.35;5.55;;;;;;;22.09;24.68;99743.16;4982230;28;20083;-70
2023/05/13 02:42:07;;;;;;;13.70;5.63;;;;;;;22.05;24.63;99741.97;4997493;28;20421;-69
2023/05/13 02:44:33;;;;;;;13.70;5.15;;;;;;;22.12;24.63;99746.22;5014304;28;20114;-70
2023/05/13 02:46:59;;;;;;;18.75;5.63;;;;;;;22.20;24.50;99743.19;5047678;28;20048;-70
2023/05/13 02:49:25;;;;;;;15.32;5.20;;;;;;;22.23;24.34;99742.75;5014929;28;20135;-70
2023/05/13 02:51:51;;;;;;;15.45;5.18;;;;;;;22.30;24.34;99748.88;5031046;28;20132;-70
2023/05/13 02:54:22;;;;;;;17.90;5.10;;;;;;;22.33;24.38;99745.69;5014835;28;20041;-69
2023/05/13 02:56:48;;;;;;;12.30;5.00;;;;;;;22.34;24.52;99746.53;5031023;28;20079;-69
2023/05/13 02:59:14;;;;;;;17.20;5.10;;;;;;;22.37;24.60;99752.28;5014491;28;20481;-71
2023/05/13 03:01:40;;;;;;;17.20;5.55;;;;;;;22.43;24.26;99748.69;5014481;28;20124;-70
2023/05/13 03:04:06;;;;;;;13.10;4.93;;;;;;;22.47;24.34;99749.84;5014481;28;20049;-70
2023/05/13 03:06:32;;;;;;;16.63;5.22;;;;;;;22.51;24.32;99753.78;5019956;28;20060;-70
2023/05/13 03:08:58;;;;;;;13.90;4.80;;;;;;;22.79;24.30;99761.25;5020482;28;20484;-69
2023/05/13 03:11:25;;;;;;;14.65;4.97;;;;;;;22.60;24.40;99754.28;5003727;28;20055;-70
2023/05/13 03:13:51;;;;;;;12.63;4.25;;;;;;;22.65;24.14;99766.03;5020221;28;20044;-70
2023/05/13 03:16:18;;;;;;;14.82;4.97;;;;;;;22.68;24.19;99760.16;5019923;28;20138;-70
2023/05/13 03:18:45;;;;;;;11.05;5.03;;;;;;;22.76;23.93;99767.13;5003850;28;20052;-69
2023/05/13 03:21:11;;;;;;;12.55;4.60;;;;;;;23.05;23.94;99767.03;5036481;28;20051;-70
2023/05/13 03:23:37;;;;;;;15.57;4.90;;;;;;;22.84;23.75;99770.31;5020057;28;20088;-70
2023/05/13 03:26:04;;;;;;;9.18;3.80;;;;;;;22.92;23.50;99761.88;5020792;28;20056;-70
2023/05/13 03:28:30;;;;;;;13.20;3.97;;;;;;;23.03;23.59;99779.97;5020744;28;20060;-70
2023/05/13 03:30:57;;;;;;;17.70;4.00;;;;;;;23.08;23.42;99772.00;5037550;28;20083;-69
2023/05/13 03:33:22;;;;;;;11.63;4.45;;;;;;;23.09;23.25;99780.94;5004212;28;20056;-69
2023/05/13 03:35:49;;;;;;;13.85;4.30;;;;;;;23.24;23.10;99774.03;5004162;28;20040;-68
2023/05/13 03:38:17;;;;;;;12.25;4.20;;;;;;;23.34;23.00;99776.13;5005115;28;20477;-68
2023/05/13 03:40:46;;;;;;;9.30;3.72;;;;;;;23.39;22.91;99776.25;5001430;28;20481;-68
2023/05/13 03:43:13;;;;;;;10.18;3.60;;;;;;;23.70;22.93;99775.00;4968110;28;20057;-68
2023/05/13 03:45:46;;;;;;;11.25;3.45;;;;;;;23.56;22.58;99771.75;4969496;28;20048;-68
2023/05/13 03:48:14;;;;;;;11.05;3.55;;;;;;;23.61;22.69;99771.03;4985795;28;20041;-66
2023/05/13 03:50:40;;;;;;;10.40;3.50;;;;;;;23.77;22.53;99775.72;5016817;28;20111;-68
2023/05/13 03:53:07;;;;;;;8.90;4.18;;;;;;;23.85;22.60;99780.78;4984275;28;20049;-68
2023/05/13 03:55:36;;;;;;;6.35;3.70;;;;;;;24.15;22.31;99776.81;5034829;28;20168;-68
2023/05/13 03:58:20;;;;;;;5.90;3.30;;;;;;;24.65;22.33;99785.03;5053674;28;20051;-68
2023/05/13 04:00:46;;;;;;;14.38;3.38;;;;;;;24.14;22.34;99777.84;5003992;28;20051;-72
2023/05/13 04:03:14;;;;;;;9.40;3.15;;;;;;;24.38;22.31;99789.44;5008476;28;20041;-69
2023/05/13 04:05:41;;;;;;;17.55;3.55;;;;;;;24.43;21.90;99794.97;5030395;28;20049;-69
2023/05/13 04:08:07;;;;;;;6.68;3.20;;;;;;;24.32;21.81;99793.13;5002975;28;20041;-70
2023/05/13 04:10:33;;;;;;;5.95;3.15;;;;;;;24.61;21.82;99794.75;5032887;28;20508;-69
2023/05/13 04:12:59;;;;;;;11.32;3.30;;;;;;;24.42;21.81;99786.00;5000500;28;20103;-70
2023/05/13 04:15:27;;;;;;;14.20;3.42;;;;;;;24.45;22.07;99792.81;5016557;28;20050;-70
2023/05/13 04:17:52;;;;;;;8.73;3.53;;;;;;;24.51;21.72;99800.00;4993021;28;20054;-69
2023/05/13 04:20:19;;;;;;;9.85;3.55;;;;;;;24.73;21.82;99795.53;4996179;28;20136;-69
2023/05/13 04:22:47;;;;;;;9.85;3.50;;;;;;;25.23;21.40;99806.44;4906885;29;20448;-69
2023/05/13 04:25:13;;;;;;;14.15;4.47;;;;;;;24.89;21.45;99802.91;4921711;28;20070;-69
2023/05/13 04:27:40;;;;;;;14.20;3.83;;;;;;;24.92;21.34;99801.56;4938270;29;20058;-70
2023/05/13 04:30:12;;;;;;;7.38;3.35;;;;;;;25.06;21.20;99798.28;4923602;29;20159;-68
2023/05/13 04:32:40;;;;;;;9.15;3.33;;;;;;;25.10;21.04;99799.44;4920866;29;20149;-70
2023/05/13 04:35:07;;;;;;;14.18;3.67;;;;;;;25.41;20.85;99798.84;4921269;28;20098;-69
2023/05/13 04:37:37;;;;;;;12.10;2.85;;;;;;;25.38;20.83;99801.25;4922900;28;20059;-70
2023/05/13 04:40:07;;;;;;;9.57;3.30;;;;;;;25.75;20.65;99797.69;4937937;29;20166;-71
2023/05/13 04:42:35;;;;;;;7.68;3.17;;;;;;;25.49;20.69;99803.03;4938063;29;20055;-69
2023/05/13 04:45:01;;;;;;;6.18;3.28;;;;;;;25.93;20.03;99811.00;4922349;29;20061;-69
2023/05/13 04:47:34;;;;;;;12.23;3.00;;;;;;;25.77;20.38;99806.41;4923705;29;20138;-68
2023/05/13 04:50:01;;;;;;;16.13;3.30;;;;;;;26.04;20.29;99804.63;4975629;28;20054;-69
2023/05/13 04:52:27;;;;;;;13.05;3.60;;;;;;;25.85;20.27;99805.16;4960789;28;20050;-69
2023/05/13 04:54:54;;;;;;;14.73;2.88;;;;;;;25.83;20.08;99805.41;5000390;28;20061;-70
2023/05/13 04:57:19;;;;;;;11.65;2.90;;;;;;;25.82;20.30;99808.38;5032828;28;20436;-69
2023/05/13 04:59:45;;;;;;;10.40;2.85;;;;;;;25.92;20.36;99806.63;5015313;28;20099;-69
2023/05/13 05:02:12;;;;;;;15.43;3.20;;;;;;;26.00;19.85;99810.84;4999869;28;20120;-69
2023/05/13 05:04:38;;;;;;;12.55;2.90;;;;;;;26.01;20.04;99805.13;4981671;28;20075;-70
2023/05/13 05:07:10;;;;;;;21.48;3.35;;;;;;;26.05;19.90;99806.25;4993046;28;20041;-70
2023/05/13 05:09:36;;;;;;;13.40;3.00;;;;;;;26.08;19.78;99810.38;5031750;28;20095;-69
2023/05/13 05:12:04;;;;;;;15.75;3.92;;;;;;;26.30;19.87;99803.00;4998838;28;20049;-69
2023/05/13 05:14:33;;;;;;;15.07;3.22;;;;;;;26.32;19.50;99801.66;4967652;28;20076;-69
2023/05/13 05:17:01;;;;;;;13.80;4.20;;;;;;;26.43;19.34;99803.44;4982853;28;20111;-70
2023/05/13 05:19:27;;;;;;;11.02;3.10;;;;;;;26.39;19.56;99804.19;5014463;28;20049;-69
2023/05/13 05:21:55;;;;;;;10.23;3.20;;;;;;;26.48;18.99;99808.94;4982128;28;20493;-69
2023/05/13 05:24:20;;;;;;;7.60;3.20;;;;;;;26.52;19.24;99812.78;4966124;28;20140;-70
2023/05/13 05:26:48;;;;;;;7.57;3.45;;;;;;;26.61;19.20;99809.59;4981888;28;20064;-69
2023/05/13 05:29:14;;;;;;;13.65;3.78;;;;;;;26.81;19.02;99807.94;4997618;28;20159;-68
2023/05/13 05:31:40;;;;;;;13.25;3.25;;;;;;;26.80;18.78;99816.34;4998248;28;20038;-68
2023/05/13 05:34:06;;;;;;;10.65;3.20;;;;;;;26.93;18.89;99811.28;4997083;28;20504;-69
2023/05/13 05:36:32;;;;;;;6.82;2.80;;;;;;;26.96;18.79;99809.94;5014685;28;20474;-70
2023/05/13 05:38:58;;;;;;;9.02;3.08;;;;;;;27.24;18.69;99821.38;4998129;28;20045;-69
2023/05/13 05:41:32;;;;;;;11.43;3.42;;;;;;;27.74;18.28;99812.69;5028910;28;20087;-69
2023/05/13 05:43:58;;;;;;;12.10;3.40;;;;;;;27.40;18.13;99812.22;4983456;28;20049;-70
2023/05/13 05:46:24;;;;;;;10.98;3.28;;;;;;;27.46;18.26;99813.09;4981647;28;20523;-69
2023/05/13 05:48:51;;;;;;;14.90;3.90;;;;;;;27.52;18.33;99818.28;4982281;28;20041;-69
2023/05/13 05:51:16;;;;;;;12.32;3.88;;;;;;;27.56;18.01;99813.16;4999399;28;20056;-69
2023/05/13 05:53:43;;;;;;;11.70;3.60;;;;;;;27.63;18.41;99816.47;5015893;28;20069;-70
2023/05/13 05:56:11;;;;;;;12.50;3.10;;;;;;;27.56;17.40;99826.78;4983638;28;20056;-70
2023/05/13 05:58:36;;;;;;;11.73;3.22;;;;;;;27.66;17.17;99821.41;4999599;28;20049;-69
2023/05/13 06:01:02;;;;;;;13.98;3.20;;;;;;;27.70;17.14;99823.34;4983300;28;20049;-69
2023/05/13 06:03:28;;;;;;;5.72;2.38;;;;;;;27.78;16.88;99819.28;4999374;28;20451;-69
2023/05/13 06:05:54;;;;;;;7.32;2.90;;;;;;;27.90;16.49;99825.38;4981445;28;20045;-69
2023/05/13 06:08:28;;;;;;;12.85;3.28;;;;;;;28.02;16.46;99821.34;5011366;28;20060;-69
2023/05/13 06:10:56;;;;;;;4.35;2.60;;;;;;;28.43;16.58;99825.00;5019898;28;20172;-70
2023/05/13 06:13:23;;;;;;;9.68;2.85;;;;;;;28.39;16.41;99826.66;5027203;28;20501;-69
2023/05/13 06:15:51;;;;;;;13.75;3.17;;;;;;;28.89;16.70;99821.28;5046966;28;20489;-69
2023/05/13 06:18:17;;;;;;;8.98;2.95;;;;;;;28.82;16.44;99830.84;5013793;28;20136;-70
2023/05/13 06:20:43;;;;;;;12.18;3.03;;;;;;;28.79;16.60;99828.66;5047336;28;20065;-70
2023/05/13 06:23:09;;;;;;;10.30;3.10;;;;;;;28.97;16.29;99830.91;4981888;28;20049;-70
2023/05/13 06:25:35;;;;;;;10.05;2.50;;;;;;;28.96;15.97;99835.53;4982073;28;20122;-69
2023/05/13 06:28:01;;;;;;;7.85;2.60;;;;;;;29.17;15.59;99841.84;4997736;28;20485;-69
2023/05/13 06:30:27;;;;;;;15.30;2.90;;;;;;;29.19;15.61;99829.53;5046883;28;20034;-69
2023/05/13 06:32:54;;;;;;;9.98;2.30;;;;;;;29.30;15.13;99844.03;4997868;28;20095;-69
2023/05/13 06:35:20;;;;;;;17.80;2.60;;;;;;;29.39;14.98;99832.28;5046837;28;20041;-69
2023/05/13 06:37:46;;;;;;;7.85;2.40;;;;;;;29.11;14.72;99824.63;5013836;28;20037;-69
2023/05/13 06:40:12;;;;;;;14.30;2.75;;;;;;;29.32;14.58;99841.84;5027151;28;20069;-69
2023/05/13 06:42:41;;;;;;;5.75;2.58;;;;;;;29.60;14.62;99833.03;5011147;28;20041;-69
2023/05/13 06:45:33;;;;;;;5.90;2.50;;;;;;;29.57;14.50;99831.69;5020523;28;20060;-69
2023/05/13 06:47:59;;;;;;;10.77;2.55;;;;;;;29.64;14.38;99827.88;5010454;28;20049;-69
2023/05/13 06:50:25;;;;;;;15.30;2.30;;;;;;;29.82;14.29;99835.47;5027437;28;20136;-69
2023/05/13 06:52:51;;;;;;;17.80;2.88;;;;;;;29.92;14.08;99836.28;5027859;28;20102;-68
2023/05/13 06:55:17;;;;;;;13.52;3.28;;;;;;;30.17;14.05;99827.16;5027805;28;20500;-69
2023/05/13 06:57:46;;;;;;;11.40;2.67;;;;;;;30.53;13.76;99828.63;5011068;28;20050;-68
2023/05/13 07:00:13;;;;;;;10.90;2.33;;;;;;;30.93;13.64;99825.63;5011006;28;20046;-69
2023/05/13 07:02:40;;;;;;;14.27;2.63;;;;;;;30.98;13.48;99831.88;5011492;28;20057;-68
2023/05/13 07:05:06;;;;;;;12.82;2.90;;;;;;;31.46;13.50;99813.66;5011305;28;20187;-69
2023/05/13 07:07:31;;;;;;;5.70;2.50;;;;;;;31.76;12.83;99824.31;5027865;28;20293;-69
2023/05/13 07:09:57;;;;;;;7.53;2.38;;;;;;;32.29;12.57;99823.13;5027833;28;20056;-69
2023/05/13 07:12:24;;;;;;;15.63;2.65;;;;;;;32.95;11.87;99817.56;5011091;28;20056;-69
2023/05/13 07:14:50;;;;;;;6.65;2.80;;;;;;;33.97;11.36;99821.75;5011153;28;20044;-69
2023/05/13 07:17:17;;;;;;;10.38;2.95;;;;;;;34.65;11.15;99818.91;5011018;28;20053;-69
2023/05/13 07:19:44;;;;;;;7.38;2.80;;;;;;;35.83;10.30;99819.28;5011211;28;20061;-70
2023/05/13 07:22:10;;;;;;;9.40;2.45;;;;;;;37.23;9.09;99814.94;5011537;28;20048;-69
2023/05/13 07:24:36;;;;;;;13.85;2.60;;;;;;;39.20;8.25;99825.75;5011262;28;20049;-69
2023/05/13 07:27:02;;;;;;;15.85;2.75;;;;;;;41.44;7.23;99819.09;5011187;28;20042;-69
2023/05/13 07:29:31;;;;;;;6.90;2.65;;;;;;;44.31;5.98;99818.13;5011001;28;20096;-70
2023/05/13 07:31:57;;;;;;;14.52;2.60;;;;;;;46.42;5.06;99825.25;5027590;28;20469;-70
2023/05/13 07:34:23;;;;;;;21.83;2.88;;;;;;;47.84;3.90;99826.16;5027322;28;20050;-70
2023/05/13 07:36:50;;;;;;;21.50;2.47;;;;;;;49.55;3.21;99818.41;5010965;28;20048;-70
2023/05/13 07:39:16;;;;;;;14.57;2.72;;;;;;;50.43;2.76;99815.66;4994702;28;20065;-70
2023/05/13 07:41:41;;;;;;;12.70;2.42;;;;;;;51.40;2.31;99816.84;5011295;28;20497;-70
2023/05/13 07:44:11;;;;;;;16.75;2.90;;;;;;;52.26;2.22;99818.66;5011036;28;20049;-70
2023/05/13 07:46:38;;;;;;;17.33;2.47;;;;;;;53.07;2.11;99822.72;5010416;28;20533;-70
2023/05/13 07:49:07;;;;;;;12.05;2.28;;;;;;;52.91;1.61;99820.59;5010829;28;20074;-70
2023/05/13 07:51:34;;;;;;;9.35;2.13;;;;;;;53.35;1.76;99810.72;4995067;28;20042;-70
2023/05/13 07:54:00;;;;;;;25.20;2.47;;;;;;;53.53;1.58;99810.28;5010859;28;20046;-70
2023/05/13 07:56:26;;;;;;;11.80;2.55;;;;;;;53.67;1.17;99818.50;5010879;28;20458;-71
2023/05/13 07:58:52;;;;;;;21.73;2.00;;;;;;;53.52;1.50;99811.56;5010779;28;20477;-71
2023/05/13 08:01:18;;;;;;;14.13;2.15;;;;;;;53.53;1.29;99810.28;5043902;28;20057;-71
2023/05/13 08:03:44;;;;;;;13.18;2.03;;;;;;;53.47;1.03;99814.91;5011117;28;20512;-70
2023/05/13 08:06:10;;;;;;;14.18;2.22;;;;;;;53.57;0.97;99811.81;5010844;28;20074;-71
2023/05/13 08:08:36;;;;;;;18.27;2.35;;;;;;;53.49;1.17;99807.53;5010953;28;20128;-70
2023/05/13 08:11:02;;;;;;;13.32;2.30;;;;;;;53.96;1.02;99817.34;5030729;28;20466;-71
2023/05/13 08:13:27;;;;;;;13.52;2.08;;;;;;;54.73;1.01;99811.56;5014224;28;20041;-71
2023/05/13 08:15:53;;;;;;;8.77;1.95;;;;;;;55.35;0.49;99808.03;5030692;28;20045;-71
2023/05/13 08:18:20;;;;;;;10.85;2.22;;;;;;;55.54;0.10;99812.72;5014049;28;20096;-71
2023/05/13 08:20:46;;;;;;;8.80;2.00;;;;;;;56.15;0.29;99807.38;5014438;28;20038;-71
2023/05/13 08:23:12;;;;;;;15.18;1.90;;;;;;;56.33;0.02;99804.66;5030851;28;20041;-71
2023/05/13 08:25:38;;;;;;;10.18;2.00;;;;;;;56.65;0.00;99811.28;5014221;28;20060;-71
2023/05/13 08:28:04;;;;;;;11.23;1.95;;;;;;;57.10;0.08;99808.72;5014086;28;20445;-71
2023/05/13 08:30:30;;;;;;;17.75;2.78;;;;;;;57.45;0.05;99801.59;5030427;28;20041;-71
2023/05/13 08:32:56;;;;;;;12.90;2.08;;;;;;;57.43;0.00;99795.53;5014069;28;20038;-71
2023/05/13 08:35:21;;;;;;;12.45;2.13;;;;;;;57.21;0.00;99795.59;5014057;28;20401;-71
2023/05/13 08:37:48;;;;;;;12.57;2.30;;;;;;;57.24;0.17;99793.91;5013784;28;20057;-71
2023/05/13 08:40:14;;;;;;;14.35;2.65;;;;;;;57.17;0.22;99789.22;5014070;28;20054;-70
2023/05/13 08:42:45;;;;;;;12.60;1.90;;;;;;;57.88;0.00;99781.38;5013751;28;20100;-70
2023/05/13 08:45:12;;;;;;;13.68;2.22;;;;;;;58.00;0.00;99774.72;5013645;28;20042;-71
2023/05/13 08:48:00;;;;;;;9.70;1.83;;;;;;;58.57;0.00;99781.56;4997311;28;20053;-71
2023/05/13 08:50:29;;;;;;;;;;;;;;;59.34;0.00;99783.56;5014213;28;20049;-71
2023/05/13 08:52:57;;;;;;;5.47;1.50;;;;;;;58.91;0.00;99773.38;5013600;28;19928;-71
2023/05/13 08:55:23;;;;;;;;;;;;;;;59.51;0.00;99783.94;5013939;28;20057;-71
2023/05/13 08:57:50;;;;;;;6.72;2.00;;;;;;;58.74;0.00;99775.03;5029969;28;19925;-71
2023/05/13 09:00:16;;;;;;;13.82;2.10;;;;;;;58.73;0.00;99764.81;5013783;28;20193;-71
2023/05/13 09:02:42;;;;;;;12.45;2.20;;;;;;;58.98;0.00;99767.31;5029683;28;20103;-71
2023/05/13 09:05:08;;;;;;;15.05;1.90;;;;;;;59.47;0.00;99771.88;5029877;28;20045;-71
2023/05/13 09:07:35;;;;;;;12.20;2.10;;;;;;;59.67;0.00;99767.13;5013234;28;20119;-72
2023/05/13 09:10:02;;;;;;;10.35;1.63;;;;;;;59.74;0.00;99765.97;5013220;28;20050;-71
2023/05/13 09:12:47;;;;;;;4.82;1.48;;;;;;;60.35;0.00;99774.56;5013029;28;20092;-71
2023/05/13 09:15:15;;;;;;;10.43;2.10;;;;;;;60.23;0.00;99766.25;5029754;28;20049;-71
2023/05/13 09:17:44;;;;;;;11.98;2.00;;;;;;;60.12;0.00;99755.34;5029290;28;20107;-71
2023/05/13 09:20:15;;;;;;;6.47;2.03;;;;;;;60.40;0.00;99773.94;5013113;28;20041;-71
2023/05/13 09:22:56;;;;;;;11.40;1.83;;;;;;;60.04;0.00;99759.06;5029555;28;20053;-71
2023/05/13 09:25:22;;;;;;;11.18;1.65;;;;;;;58.78;0.00;99749.84;5029530;28;20393;-71
2023/05/13 09:28:03;;;;;;;10.02;1.70;;;;;;;59.11;0.00;99758.50;5013344;28;20103;-71
2023/05/13 09:30:31;;;;;;;5.15;1.65;;;;;;;59.05;0.00;99749.00;5045900;28;20041;-71
2023/05/13 09:33:05;;;;;;;11.60;1.55;;;;;;;59.61;0.00;99737.53;5013109;28;20042;-71
2023/05/13 09:35:31;;;;;;;16.17;1.92;;;;;;;59.32;0.00;99742.34;5012639;28;20045;-71
2023/05/13 09:37:57;;;;;;;15.77;2.03;;;;;;;59.68;0.00;99742.13;5029268;28;20140;-71
2023/05/13 09:40:23;;;;;;;13.60;1.42;;;;;;;59.89;0.00;99741.81;5012979;28;20152;-71
2023/05/13 09:42:49;;;;;;;6.35;1.60;;;;;;;59.59;0.00;99737.25;5012985;28;20144;-71
2023/05/13 09:45:17;;;;;;;4.30;1.60;;;;;;;59.66;0.00;99728.28;5012655;28;20491;-71
2023/05/13 09:47:50;;;;;;;14.65;2.05;;;;;;;59.94;0.00;99734.59;5029237;28;20473;-71
2023/05/13 09:50:18;;;;;;;11.85;1.80;;;;;;;59.50;0.00;99722.16;5015484;28;20061;-71
2023/05/13 09:52:45;;;;;;;14.60;2.08;;;;;;;59.68;0.00;99724.91;4998339;28;20084;-71
2023/05/13 09:55:11;;;;;;;9.35;1.55;;;;;;;59.37;0.00;99727.34;5015032;28;20480;-71
2023/05/13 09:57:47;;;;;;;22.15;1.77;;;;;;;59.90;0.00;99731.91;5014653;28;20473;-72
2023/05/13 10:00:17;;;;;;;17.02;1.73;;;;;;;59.96;0.00;99735.69;5015272;28;20041;-71
2023/05/13 10:02:43;;;;;;;14.05;1.92;;;;;;;59.61;0.00;99716.69;4998402;28;20049;-72
2023/05/13 10:05:10;;;;;;;21.10;2.42;;;;;;;60.28;0.00;99734.78;4998190;28;20559;-72
2023/05/13 10:07:36;;;;;;;10.02;1.77;;;;;;;59.82;0.00;99721.28;4998287;28;20159;-71
2023/05/13 10:10:03;;;;;;;6.28;1.67;;;;;;;59.67;0.00;99720.47;4982534;28;20041;-72
2023/05/13 10:12:31;;;;;;;11.50;1.50;;;;;;;59.52;0.00;99710.97;4998359;28;20033;-72
2023/05/13 10:14:57;;;;;;;12.77;1.85;;;;;;;59.46;0.00;99713.72;5014965;28;20510;-72
2023/05/13 10:17:25;;;;;;;13.07;1.90;;;;;;;59.09;0.00;99712.34;5014512;28;20081;-72
2023/05/13 10:19:52;;;;;;;12.40;1.70;;;;;;;58.85;0.00;99705.75;5014858;28;20055;-71
2023/05/13 10:22:31;;;;;;;16.10;1.80;;;;;;;58.94;0.00;99711.44;4982524;28;20156;-72
2023/05/13 10:24:58;;;;;;;13.95;1.80;;;;;;;57.87;0.00;99705.41;4981854;28;20143;-72
2023/05/13 10:27:28;;;;;;;5.95;1.55;;;;;;;57.43;0.00;99706.94;5007164;28;20060;-72
2023/05/13 10:29:56;;;;;;;14.70;1.98;;;;;;;56.80;0.00;99700.97;5011912;28;20046;-72
2023/05/13 10:32:26;;;;;;;7.60;1.88;;;;;;;56.67;0.00;99697.44;5011511;28;20038;-71
2023/05/13 10:35:05;;;;;;;10.15;2.15;;;;;;;56.56;0.00;99702.75;5028594;28;20059;-71
2023/05/13 10:37:43;;;;;;;9.93;1.80;;;;;;;56.85;0.00;99688.94;5011805;28;20076;-71
2023/05/13 10:40:41;;;;;;;14.23;2.25;;;;;;;56.97;0.00;99699.47;5011699;28;20517;-72
2023/05/13 10:43:17;;;;;;;5.60;1.70;;;;;;;57.30;0.00;99692.78;5011824;28;20041;-72
2023/05/13 10:45:48;;;;;;;6.68;2.00;;;;;;;57.09;0.00;99696.50;5011637;28;20050;-72
2023/05/13 10:48:16;;;;;;;14.68;1.90;;;;;;;56.65;0.00;99697.09;5011594;28;20476;-71
2023/05/13 10:50:56;;;;;;;10.10;1.90;;;;;;;57.02;0.00;99693.16;5027826;28;20046;-71
2023/05/13 10:53:27;;;;;;;15.48;1.83;;;;;;;55.71;0.20;99676.53;5011725;28;20164;-71
2023/05/13 10:55:59;;;;;;;6.50;2.10;;;;;;;55.41;0.00;99680.81;5011821;28;20504;-71
2023/05/13 10:58:33;;;;;;;12.85;2.10;;;;;;;55.08;0.27;99692.94;5011485;28;20048;-71
2023/05/13 11:01:18;;;;;;;6.97;1.92;;;;;;;55.08;0.08;99682.34;5011790;28;20107;-71
2023/05/13 11:04:04;;;;;;;12.30;1.95;;;;;;;54.40;0.19;99682.03;5027788;28;20226;-71
2023/05/13 11:06:35;;;;;;;9.50;2.03;;;;;;;53.70;0.41;99684.03;5044328;28;20045;-71
2023/05/13 11:09:05;;;;;;;6.75;1.60;;;;;;;52.69;0.61;99676.75;5027701;28;20055;-71
2023/05/13 11:11:33;;;;;;;6.97;1.67;;;;;;;51.48;0.83;99677.53;5011339;28;20110;-71
2023/05/13 11:14:21;;;;;;;5.47;2.00;;;;;;;50.53;1.88;99662.00;4994935;28;20073;-71
2023/05/13 11:17:00;;;;;;;7.53;2.13;;;;;;;49.17;2.25;99664.22;5027256;28;20046;-71
2023/05/13 11:19:28;;;;;;;13.57;2.17;;;;;;;47.59;2.62;99656.44;5011256;28;20050;-71
2023/05/13 11:22:04;;;;;;;10.23;2.30;;;;;;;46.96;2.93;99651.59;4995197;28;20046;-71
2023/05/13 11:24:30;;;;;;;11.13;2.05;;;;;;;45.62;2.89;99649.34;5027596;28;20093;-71
2023/05/13 11:26:58;;;;;;;15.27;2.33;;;;;;;44.68;3.80;99647.28;5028105;28;20046;-71
2023/05/13 11:29:32;;;;;;;7.18;2.10;;;;;;;43.80;4.36;99636.91;5028092;28;20076;-71
2023/05/13 11:31:59;;;;;;;17.38;2.35;;;;;;;42.87;4.71;99635.75;5027948;28;20048;-71
2023/05/13 11:34:25;;;;;;;7.35;1.98;;;;;;;42.17;4.93;99648.28;5011571;28;20041;-70
2023/05/13 11:37:02;;;;;;;5.47;2.10;;;;;;;42.28;5.07;99640.94;5027546;28;20044;-71